Time,TemperatureF,DewpointF,PressureIn,WindDirection,WindDirectionDegrees,WindSpeedMPH,WindSpeedGustMPH,Humidity,HourlyPrecipIn,Conditions,Clouds,dailyrainin,SoftwareType,DateUTC
2013-05-30 00:05:00,50.9,43.3,29.62,West,272,5.8,5.8,75,0.00,,---,0.00,VWS V14.01,2013-05-30 06:05:00,
2013-05-30 00:10:00,50.7,43.1,29.65,West,259,5.8,6.3,75,0.00,,---,0.00,VWS V14.01,2013-05-30 06:10:00,
2013-05-30 00:15:00,50.7,43.1,29.65,West,264,6.3,7.6,75,0.00,,---,0.00,VWS V14.01,2013-05-30 06:15:00,
2013-05-30 00:20:00,50.5,42.9,29.65,West,275,6.3,6.3,75,0.00,,---,0.00,VWS V14.01,2013-05-30 06:20:00,
2013-05-30 00:26:00,50.5,42.9,29.65,WSW,256,5.8,5.8,75,0.00,,---,0.00,VWS V14.01,2013-05-30 06:26:00,
2013-05-30 00:32:00,50.7,43.4,29.65,WSW,256,4.9,5.8,76,0.00,,---,0.00,VWS V14.01,2013-05-30 06:32:00,
2013-05-30 00:37:00,50.7,43.4,29.65,West,260,6.3,6.3,76,0.00,,---,0.00,VWS V14.01,2013-05-30 06:37:00,
2013-05-30 00:43:00,50.7,43.4,29.65,WSW,255,4.0,5.4,76,0.00,,---,0.00,VWS V14.01,2013-05-30 06:43:00,
2013-05-30 00:48:00,50.7,43.4,29.65,WSW,251,5.4,5.4,76,0.00,,---,0.00,VWS V14.01,2013-05-30 06:48:00,
2013-05-30 00:54:00,50.7,43.4,29.62,SW,232,4.9,5.4,76,0.00,,---,0.00,VWS V14.01,2013-05-30 06:54:00,
2013-05-30 00:59:00,50.7,43.4,29.62,SW,224,5.4,5.8,76,0.00,,---,0.00,VWS V14.01,2013-05-30 06:59:00,
2013-05-30 01:05:00,50.7,43.4,29.62,SW,218,5.4,5.4,76,0.00,,---,0.00,VWS V14.01,2013-05-30 07:05:00,
2013-05-30 01:11:00,50.7,43.4,29.62,SW,218,3.1,4.0,76,0.00,,---,0.00,VWS V14.01,2013-05-30 07:11:00,
2013-05-30 01:16:00,50.7,43.4,29.62,SW,217,5.4,5.4,76,0.00,,---,0.00,VWS V14.01,2013-05-30 07:16:00,
2013-05-30 01:22:00,50.7,43.4,29.62,SSW,205,5.4,5.4,76,0.00,,---,0.00,VWS V14.01,2013-05-30 07:22:00,
2013-05-30 01:28:00,50.7,43.4,29.62,SSW,199,5.8,5.8,76,0.00,,---,0.00,VWS V14.01,2013-05-30 07:28:00,
2013-05-30 01:33:00,50.7,43.4,29.62,SSW,197,7.6,8.1,76,0.00,,---,0.00,VWS V14.01,2013-05-30 07:33:00,
2013-05-30 01:39:00,50.5,43.3,29.62,SSW,196,8.7,8.7,76,0.00,,---,0.00,VWS V14.01,2013-05-30 07:39:00,
2013-05-30 01:45:00,50.5,43.6,29.65,South,185,7.6,7.6,77,0.00,,---,0.00,VWS V14.01,2013-05-30 07:45:00,
2013-05-30 01:50:00,50.5,43.6,29.65,South,188,8.1,8.7,77,0.00,,---,0.00,VWS V14.01,2013-05-30 07:50:00,
2013-05-30 01:56:00,50.5,43.6,29.65,South,188,6.7,6.7,77,0.00,,---,0.00,VWS V14.01,2013-05-30 07:56:00,
2013-05-30 02:01:00,50.5,43.6,29.65,South,189,8.3,8.3,77,0.00,,---,0.00,VWS V14.01,2013-05-30 08:01:00,
2013-05-30 02:07:00,50.4,43.4,29.65,South,171,9.2,9.2,77,0.00,,---,0.00,VWS V14.01,2013-05-30 08:07:00,
2013-05-30 02:12:00,50.4,43.4,29.65,South,177,4.0,4.0,77,0.00,,---,0.00,VWS V14.01,2013-05-30 08:12:00,
2013-05-30 02:18:00,50.4,43.4,29.65,SSE,166,5.8,5.8,77,0.00,,---,0.00,VWS V14.01,2013-05-30 08:18:00,
2013-05-30 02:23:00,50.4,43.8,29.65,South,180,6.3,6.3,78,0.00,,---,0.00,VWS V14.01,2013-05-30 08:23:00,
2013-05-30 02:28:00,50.4,43.8,29.65,South,185,6.3,6.3,78,0.00,,---,0.00,VWS V14.01,2013-05-30 08:28:00,
2013-05-30 02:33:00,50.4,43.8,29.65,South,172,4.0,5.4,78,0.00,,---,0.00,VWS V14.01,2013-05-30 08:33:00,
2013-05-30 02:39:00,50.2,43.6,29.65,South,182,4.9,4.9,78,0.00,,---,0.00,VWS V14.01,2013-05-30 08:39:00,
2013-05-30 02:45:00,50.2,43.3,29.62,South,178,3.1,3.1,77,0.00,,---,0.00,VWS V14.01,2013-05-30 08:45:00,
2013-05-30 02:50:00,50.0,43.1,29.62,South,179,5.4,5.4,77,0.00,,---,0.00,VWS V14.01,2013-05-30 08:50:00,
2013-05-30 02:56:00,49.8,42.9,29.62,South,180,4.0,4.0,77,0.00,,---,0.00,VWS V14.01,2013-05-30 08:56:00,
2013-05-30 03:01:00,49.6,42.7,29.62,South,170,6.3,6.3,77,0.00,,---,0.00,VWS V14.01,2013-05-30 09:01:00,
2013-05-30 03:07:00,49.5,42.6,29.62,South,182,5.4,5.4,77,0.00,,---,0.00,VWS V14.01,2013-05-30 09:07:00,
2013-05-30 03:12:00,49.5,42.9,29.62,South,179,3.1,4.9,78,0.00,,---,0.00,VWS V14.01,2013-05-30 09:12:00,
2013-05-30 03:17:00,49.5,42.6,29.62,South,177,4.9,4.9,77,0.00,,---,0.00,VWS V14.01,2013-05-30 09:17:00,
2013-05-30 03:23:00,49.5,42.9,29.62,South,185,6.3,6.3,78,0.00,,---,0.00,VWS V14.01,2013-05-30 09:23:00,
2013-05-30 03:28:00,49.5,42.9,29.62,SSW,192,8.1,8.1,78,0.00,,---,0.00,VWS V14.01,2013-05-30 09:28:00,
2013-05-30 03:34:00,49.5,42.9,29.62,South,184,7.6,7.6,78,0.00,,---,0.00,VWS V14.01,2013-05-30 09:34:00,
2013-05-30 03:39:00,49.5,42.9,29.62,South,185,7.6,7.6,78,0.00,,---,0.00,VWS V14.01,2013-05-30 09:39:00,
2013-05-30 03:45:00,49.5,42.9,29.62,South,190,5.4,5.4,78,0.00,,---,0.00,VWS V14.01,2013-05-30 09:45:00,
2013-05-30 03:50:00,49.5,42.9,29.62,SSW,194,6.3,6.3,78,0.00,,---,0.00,VWS V14.01,2013-05-30 09:50:00,
2013-05-30 03:56:00,49.3,42.7,29.62,South,173,6.3,7.6,78,0.00,,---,0.00,VWS V14.01,2013-05-30 09:56:00,
2013-05-30 04:01:00,49.3,42.7,29.62,SSW,200,5.4,7.2,78,0.00,,---,0.00,VWS V14.01,2013-05-30 10:01:00,
2013-05-30 04:06:00,49.1,42.5,29.62,SSW,213,8.1,8.1,78,0.00,,---,0.00,VWS V14.01,2013-05-30 10:06:00,
2013-05-30 04:11:00,49.1,42.9,29.62,SSW,203,6.7,8.1,79,0.00,,---,0.00,VWS V14.01,2013-05-30 10:11:00,
2013-05-30 04:17:00,48.9,42.7,29.62,SSW,206,6.3,6.3,79,0.00,,---,0.00,VWS V14.01,2013-05-30 10:17:00,
2013-05-30 04:22:00,48.9,42.7,29.62,SW,226,5.8,5.8,79,0.00,,---,0.00,VWS V14.01,2013-05-30 10:22:00,
2013-05-30 04:27:00,48.7,42.5,29.62,SSW,209,4.9,4.9,79,0.00,,---,0.00,VWS V14.01,2013-05-30 10:27:00,
2013-05-30 04:33:00,48.6,42.3,29.62,SW,217,4.0,4.0,79,0.00,,---,0.00,VWS V14.01,2013-05-30 10:33:00,
2013-05-30 04:38:00,48.4,42.2,29.62,SW,217,5.4,5.8,79,0.00,,---,0.00,VWS V14.01,2013-05-30 10:38:00,
2013-05-30 04:44:00,48.4,42.2,29.62,SSW,213,4.9,5.4,79,0.00,,---,0.00,VWS V14.01,2013-05-30 10:44:00,
2013-05-30 04:49:00,48.4,42.2,29.62,SSW,204,5.4,5.4,79,0.00,,---,0.00,VWS V14.01,2013-05-30 10:49:00,
2013-05-30 04:55:00,48.4,42.2,29.62,SSW,207,4.0,4.5,79,0.00,,---,0.00,VWS V14.01,2013-05-30 10:55:00,
2013-05-30 05:00:00,48.4,42.2,29.62,SSW,198,4.0,4.0,79,0.00,,---,0.00,VWS V14.01,2013-05-30 11:00:00,
2013-05-30 05:05:00,48.4,42.2,29.62,South,190,3.1,4.0,79,0.00,,---,0.00,VWS V14.01,2013-05-30 11:05:00,
2013-05-30 05:11:00,48.4,42.2,29.62,SSW,197,4.5,4.5,79,0.00,,---,0.00,VWS V14.01,2013-05-30 11:11:00,
2013-05-30 05:16:00,48.4,42.2,29.62,South,188,3.6,4.0,79,0.00,,---,0.00,VWS V14.01,2013-05-30 11:16:00,
2013-05-30 05:22:00,48.4,42.2,29.62,South,190,2.7,4.0,79,0.00,,---,0.00,VWS V14.01,2013-05-30 11:22:00,
2013-05-30 05:27:00,48.4,42.2,29.62,SSW,198,5.4,5.4,79,0.00,,---,0.00,VWS V14.01,2013-05-30 11:27:00,
2013-05-30 05:33:00,48.4,42.2,29.62,SSW,208,5.4,5.4,79,0.00,,---,0.00,VWS V14.01,2013-05-30 11:33:00,
2013-05-30 05:38:00,48.2,42.0,29.62,SSW,213,5.8,5.8,79,0.00,,---,0.00,VWS V14.01,2013-05-30 11:38:00,
2013-05-30 05:44:00,48.2,42.0,29.62,SW,228,6.3,6.3,79,0.00,,---,0.00,VWS V14.01,2013-05-30 11:44:00,
2013-05-30 05:50:00,48.0,41.8,29.65,WSW,254,6.3,6.3,79,0.00,,---,0.00,VWS V14.01,2013-05-30 11:50:00,
2013-05-30 05:55:00,48.0,41.8,29.65,WSW,241,7.6,7.6,79,0.00,,---,0.00,VWS V14.01,2013-05-30 11:55:00,
2013-05-30 06:00:00,48.6,42.7,29.65,WSW,249,8.1,8.1,80,0.00,,---,0.00,VWS V14.01,2013-05-30 12:00:00,
2013-05-30 06:05:00,49.5,43.6,29.65,WSW,251,8.7,8.7,80,0.00,,---,0.00,VWS V14.01,2013-05-30 12:05:00,
2013-05-30 06:11:00,50.5,44.9,29.65,WSW,256,7.6,9.2,81,0.00,,---,0.00,VWS V14.01,2013-05-30 12:11:00,
2013-05-30 06:16:00,51.6,45.7,29.65,West,266,8.7,8.7,80,0.00,,---,0.00,VWS V14.01,2013-05-30 12:16:00,
2013-05-30 06:21:00,52.2,45.8,29.65,West,259,8.7,10.1,79,0.00,,---,0.00,VWS V14.01,2013-05-30 12:21:00,
2013-05-30 06:26:00,52.7,46.0,29.65,West,263,8.3,11.4,78,0.00,,---,0.00,VWS V14.01,2013-05-30 12:26:00,
2013-05-30 06:31:00,53.1,45.0,29.65,West,270,8.7,10.1,74,0.00,,---,0.00,VWS V14.01,2013-05-30 12:31:00,
2013-05-30 06:36:00,53.6,44.8,29.65,WSW,258,6.3,6.3,72,0.00,,---,0.00,VWS V14.01,2013-05-30 12:36:00,
2013-05-30 06:41:00,54.1,44.6,29.65,WSW,240,8.3,8.3,70,0.00,,---,0.00,VWS V14.01,2013-05-30 12:41:00,
2013-05-30 06:47:00,54.5,43.8,29.65,West,260,8.3,8.3,67,0.00,,---,0.00,VWS V14.01,2013-05-30 12:47:00,
2013-05-30 06:53:00,55.4,42.6,29.65,WSW,258,10.1,10.1,62,0.00,,---,0.00,VWS V14.01,2013-05-30 12:53:00,
2013-05-30 06:58:00,55.6,39.7,29.65,West,265,11.4,12.8,55,0.00,,---,0.00,VWS V14.01,2013-05-30 12:58:00,
2013-05-30 07:04:00,55.9,38.6,29.65,WSW,252,10.5,13.2,52,0.00,,---,0.00,VWS V14.01,2013-05-30 13:04:00,
2013-05-30 07:10:00,56.3,36.9,29.67,WSW,252,12.3,12.3,48,0.00,,---,0.00,VWS V14.01,2013-05-30 13:10:00,
2013-05-30 07:15:00,56.3,36.9,29.67,WSW,241,12.3,12.3,48,0.00,,---,0.00,VWS V14.01,2013-05-30 13:15:00,
2013-05-30 07:20:00,56.8,36.8,29.67,West,265,8.1,15.4,47,0.00,,---,0.00,VWS V14.01,2013-05-30 13:20:00,
2013-05-30 07:25:00,57.4,36.8,29.67,WSW,252,12.8,12.8,46,0.00,,---,0.00,VWS V14.01,2013-05-30 13:25:00,
2013-05-30 07:31:00,57.9,36.7,29.67,West,276,11.0,16.3,45,0.00,,---,0.00,VWS V14.01,2013-05-30 13:31:00,
2013-05-30 07:36:00,58.5,37.2,29.67,West,279,9.2,9.2,45,0.00,,---,0.00,VWS V14.01,2013-05-30 13:36:00,
2013-05-30 07:42:00,58.5,37.2,29.67,WSW,256,13.2,13.2,45,0.00,,---,0.00,VWS V14.01,2013-05-30 13:42:00,
2013-05-30 07:47:00,58.5,37.2,29.67,West,266,12.8,12.8,45,0.00,,---,0.00,VWS V14.01,2013-05-30 13:47:00,
2013-05-30 07:53:00,59.7,37.2,29.67,West,259,11.0,11.0,43,0.00,,---,0.00,VWS V14.01,2013-05-30 13:53:00,
2013-05-30 07:58:00,60.1,36.3,29.67,WNW,290,16.3,16.3,41,0.00,,---,0.00,VWS V14.01,2013-05-30 13:58:00,
2013-05-30 08:04:00,60.6,34.2,29.67,West,269,15.0,17.4,37,0.00,,---,0.00,VWS V14.01,2013-05-30 14:04:00,
2013-05-30 08:10:00,60.6,34.2,29.67,West,265,22.4,22.4,37,0.00,,---,0.00,VWS V14.01,2013-05-30 14:10:00,
2013-05-30 08:15:00,61.3,34.9,29.67,West,267,13.2,13.2,37,0.00,,---,0.00,VWS V14.01,2013-05-30 14:15:00,
2013-05-30 08:20:00,61.9,34.7,29.67,WNW,286,12.3,12.3,36,0.00,,---,0.00,VWS V14.01,2013-05-30 14:20:00,
2013-05-30 08:25:00,61.5,34.3,29.65,West,259,17.4,17.4,36,0.00,,---,0.00,VWS V14.01,2013-05-30 14:25:00,
2013-05-30 08:31:00,61.5,33.6,29.65,West,259,24.2,24.2,35,0.00,,---,0.00,VWS V14.01,2013-05-30 14:31:00,
2013-05-30 08:36:00,61.7,33.8,29.65,WSW,256,13.2,13.2,35,0.00,,---,0.00,VWS V14.01,2013-05-30 14:36:00,
2013-05-30 08:41:00,62.1,34.1,29.65,West,268,10.5,15.4,35,0.00,,---,0.00,VWS V14.01,2013-05-30 14:41:00,
2013-05-30 08:46:00,62.8,34.8,29.67,WSW,257,15.4,15.4,35,0.00,,---,0.00,VWS V14.01,2013-05-30 14:46:00,
2013-05-30 08:52:00,63.5,34.7,29.65,West,266,24.6,24.6,34,0.00,,---,0.00,VWS V14.01,2013-05-30 14:52:00,
2013-05-30 08:57:00,63.3,33.8,29.65,West,265,15.4,16.8,33,0.00,,---,0.00,VWS V14.01,2013-05-30 14:57:00,
2013-05-30 09:02:00,63.3,34.5,29.65,WSW,246,12.3,19.7,34,0.00,,---,0.00,VWS V14.01,2013-05-30 15:02:00,
2013-05-30 09:07:00,63.7,34.1,29.67,West,271,24.2,24.2,33,0.00,,---,0.00,VWS V14.01,2013-05-30 15:07:00,
2013-05-30 09:13:00,64.2,33.0,29.67,West,260,23.3,24.2,31,0.00,,---,0.00,VWS V14.01,2013-05-30 15:13:00,
2013-05-30 09:18:00,64.6,32.5,29.67,WNW,289,25.5,25.5,30,0.00,,---,0.00,VWS V14.01,2013-05-30 15:18:00,
2013-05-30 09:24:00,64.6,33.3,29.67,West,267,25.5,25.5,31,0.00,,---,0.00,VWS V14.01,2013-05-30 15:24:00,
2013-05-30 09:30:00,64.9,32.0,29.65,West,269,17.4,22.4,29,0.00,,---,0.00,VWS V14.01,2013-05-30 15:30:00,
2013-05-30 09:36:00,65.1,32.1,29.65,West,278,28.0,28.0,29,0.00,,---,0.00,VWS V14.01,2013-05-30 15:36:00,
2013-05-30 09:45:00,65.7,32.6,29.67,West,265,15.0,15.4,29,0.00,,---,0.00,VWS V14.01,2013-05-30 15:45:00,
2013-05-30 11:08:00,69.4,31.1,29.65,WSW,251,20.6,20.6,24,0.00,,---,0.00,VWS V14.01,2013-05-30 17:08:00,
2013-05-30 11:14:00,69.6,31.3,29.65,WSW,258,16.8,25.5,24,0.00,,---,0.00,VWS V14.01,2013-05-30 17:14:00,
2013-05-30 11:20:00,69.8,30.4,29.65,WNW,289,18.3,18.3,23,0.00,,---,0.00,VWS V14.01,2013-05-30 17:20:00,
2013-05-30 11:25:00,69.6,30.2,29.65,West,268,17.4,21.5,23,0.00,,---,0.00,VWS V14.01,2013-05-30 17:25:00,
2013-05-30 11:30:00,70.0,31.6,29.65,West,261,19.7,23.7,24,0.00,,---,0.00,VWS V14.01,2013-05-30 17:30:00,
2013-05-30 11:35:00,70.2,30.7,29.65,West,268,25.5,28.9,23,0.00,,---,0.00,VWS V14.01,2013-05-30 17:35:00,
2013-05-30 11:41:00,69.8,30.4,29.65,WSW,245,16.3,23.7,23,0.00,,---,0.00,VWS V14.01,2013-05-30 17:41:00,
2013-05-30 11:46:00,70.3,30.8,29.65,West,263,17.4,20.6,23,0.00,,---,0.00,VWS V14.01,2013-05-30 17:46:00,
2013-05-30 11:51:00,70.7,30.0,29.65,WSW,253,23.7,24.6,22,0.00,,---,0.00,VWS V14.01,2013-05-30 17:51:00,
2013-05-30 11:56:00,70.5,29.9,29.65,West,265,21.9,22.8,22,0.00,,---,0.00,VWS V14.01,2013-05-30 17:56:00,
2013-05-30 12:02:00,70.2,30.7,29.65,West,266,19.7,24.6,23,0.00,,---,0.00,VWS V14.01,2013-05-30 18:02:00,
2013-05-30 12:08:00,70.3,30.8,29.65,West,278,19.7,25.5,23,0.00,,---,0.00,VWS V14.01,2013-05-30 18:08:00,
2013-05-30 12:13:00,70.7,31.1,29.65,WSW,246,20.1,20.1,23,0.00,,---,0.00,VWS V14.01,2013-05-30 18:13:00,
2013-05-30 12:18:00,71.4,31.7,29.65,SW,235,18.8,20.6,23,0.00,,---,0.00,VWS V14.01,2013-05-30 18:18:00,
2013-05-30 12:23:00,71.8,30.9,29.65,WSW,249,17.0,26.6,22,0.00,,---,0.00,VWS V14.01,2013-05-30 18:23:00,
2013-05-30 12:29:00,71.6,30.8,29.65,WNW,289,18.8,18.8,22,0.00,,---,0.00,VWS V14.01,2013-05-30 18:29:00,
2013-05-30 12:34:00,70.3,29.7,29.65,West,269,23.7,23.7,22,0.00,,---,0.00,VWS V14.01,2013-05-30 18:34:00,
2013-05-30 12:39:00,70.7,30.0,29.65,West,261,25.5,26.2,22,0.00,,---,0.00,VWS V14.01,2013-05-30 18:39:00,
2013-05-30 12:44:00,71.1,30.3,29.65,West,275,19.2,19.2,22,0.00,,---,0.00,VWS V14.01,2013-05-30 18:44:00,
2013-05-30 12:50:00,71.8,29.8,29.65,WSW,250,23.3,24.2,21,0.00,,---,0.00,VWS V14.01,2013-05-30 18:50:00,
2013-05-30 12:55:00,72.0,31.1,29.65,West,271,17.4,17.4,22,0.00,,---,0.00,VWS V14.01,2013-05-30 18:55:00,
2013-05-30 13:00:00,71.8,29.8,29.65,West,265,20.1,21.5,21,0.00,,---,0.00,VWS V14.01,2013-05-30 19:00:00,
2013-05-30 13:05:00,72.1,31.2,29.65,WSW,253,13.2,19.7,22,0.00,,---,0.00,VWS V14.01,2013-05-30 19:05:00,
2013-05-30 13:11:00,72.7,30.5,29.65,West,262,26.6,28.4,21,0.00,,---,0.00,VWS V14.01,2013-05-30 19:11:00,
2013-05-30 13:16:00,72.7,28.1,29.65,West,279,19.2,21.9,19,0.00,,---,0.00,VWS V14.01,2013-05-30 19:16:00,
2013-05-30 13:21:00,72.1,30.1,29.62,West,278,27.5,27.5,21,0.00,,---,0.00,VWS V14.01,2013-05-30 19:21:00,
2013-05-30 13:26:00,72.0,29.9,29.62,West,261,15.4,21.9,21,0.00,,---,0.00,VWS V14.01,2013-05-30 19:26:00,
2013-05-30 13:32:00,72.5,27.9,29.62,WSW,255,19.2,24.2,19,0.00,,---,0.00,VWS V14.01,2013-05-30 19:32:00,
2013-05-30 13:37:00,72.7,30.5,29.62,West,262,15.9,24.2,21,0.00,,---,0.00,VWS V14.01,2013-05-30 19:37:00,
2013-05-30 13:43:00,74.5,28.2,29.62,West,263,27.5,27.5,18,0.00,,---,0.00,VWS V14.01,2013-05-30 19:43:00,
2013-05-30 13:49:00,73.8,27.6,29.62,SW,221,22.8,22.8,18,0.00,,---,0.00,VWS V14.01,2013-05-30 19:49:00,
2013-05-30 13:54:00,73.8,27.6,29.62,WSW,247,19.2,22.8,18,0.00,,---,0.00,VWS V14.01,2013-05-30 19:54:00,
2013-05-30 13:59:00,73.8,27.6,29.62,SW,225,25.1,25.1,18,0.00,,---,0.00,VWS V14.01,2013-05-30 19:59:00,
2013-05-30 14:05:00,73.8,27.6,29.62,West,259,28.0,28.0,18,0.00,,---,0.00,VWS V14.01,2013-05-30 20:05:00,
2013-05-30 14:11:00,73.6,24.7,29.62,WSW,256,22.8,28.4,16,0.00,,---,0.00,VWS V14.01,2013-05-30 20:11:00,
2013-05-30 14:17:00,73.8,24.8,29.62,West,264,17.9,24.2,16,0.00,,---,0.00,VWS V14.01,2013-05-30 20:17:00,
2013-05-30 14:22:00,73.8,24.8,29.65,SW,232,20.6,20.6,16,0.00,,---,0.00,VWS V14.01,2013-05-30 20:22:00,
2013-05-30 14:28:00,73.8,24.8,29.65,West,264,24.2,24.2,16,0.00,,---,0.00,VWS V14.01,2013-05-30 20:28:00,
2013-05-30 14:33:00,74.1,25.1,29.65,WSW,255,16.8,23.7,16,0.00,,---,0.00,VWS V14.01,2013-05-30 20:33:00,
2013-05-30 14:38:00,73.4,27.4,29.65,WSW,252,21.0,23.7,18,0.00,,---,0.00,VWS V14.01,2013-05-30 20:38:00,
2013-05-30 14:43:00,73.9,25.0,29.65,West,280,22.4,22.4,16,0.00,,---,0.00,VWS V14.01,2013-05-30 20:43:00,
2013-05-30 14:49:00,74.1,20.2,29.65,West,267,24.2,24.2,13,0.00,,---,0.00,VWS V14.01,2013-05-30 20:49:00,
2013-05-30 14:54:00,73.8,19.9,29.65,West,278,22.8,24.2,13,0.00,,---,0.00,VWS V14.01,2013-05-30 20:54:00,
2013-05-30 15:00:00,74.5,20.5,29.65,West,264,25.7,30.2,13,0.00,,---,0.00,VWS V14.01,2013-05-30 21:00:00,
2013-05-30 15:06:00,74.7,20.6,29.62,West,260,15.9,19.7,13,0.00,,---,0.00,VWS V14.01,2013-05-30 21:06:00,
2013-05-30 15:11:00,74.5,20.5,29.62,WSW,253,19.7,20.1,13,0.00,,---,0.00,VWS V14.01,2013-05-30 21:11:00,
2013-05-30 15:17:00,74.5,20.5,29.62,West,266,22.8,22.8,13,0.00,,---,0.00,VWS V14.01,2013-05-30 21:17:00,
2013-05-30 15:22:00,75.0,20.9,29.62,WSW,251,18.3,21.5,13,0.00,,---,0.00,VWS V14.01,2013-05-30 21:22:00,
2013-05-30 15:28:00,75.0,20.9,29.65,West,271,22.8,28.4,13,0.00,,---,0.00,VWS V14.01,2013-05-30 21:28:00,
2013-05-30 15:33:00,74.7,16.7,29.65,West,260,21.9,25.1,11,0.00,,---,0.00,VWS V14.01,2013-05-30 21:33:00,
2013-05-30 15:39:00,74.5,16.6,29.62,WSW,251,17.9,17.9,11,0.00,,---,0.00,VWS V14.01,2013-05-30 21:39:00,
2013-05-30 15:44:00,74.7,16.7,29.62,SW,234,25.1,25.1,11,0.00,,---,0.00,VWS V14.01,2013-05-30 21:44:00,
2013-05-30 15:49:00,74.8,16.9,29.62,WSW,253,16.8,24.2,11,0.00,,---,0.00,VWS V14.01,2013-05-30 21:49:00,
2013-05-30 15:55:00,75.4,15.1,29.65,WSW,253,25.1,28.0,10,0.00,,---,0.00,VWS V14.01,2013-05-30 21:55:00,
2013-05-30 16:00:00,75.0,17.0,29.65,West,261,26.6,28.4,11,0.00,,---,0.00,VWS V14.01,2013-05-30 22:00:00,
2013-05-30 16:05:00,74.5,16.6,29.65,West,259,22.8,28.9,11,0.00,,---,0.00,VWS V14.01,2013-05-30 22:05:00,
2013-05-30 16:10:00,74.5,16.6,29.65,West,274,24.2,28.0,11,0.00,,---,0.00,VWS V14.01,2013-05-30 22:10:00,
2013-05-30 16:15:00,74.7,16.7,29.65,West,260,21.5,27.5,11,0.00,,---,0.00,VWS V14.01,2013-05-30 22:15:00,
2013-05-30 16:21:00,74.7,16.7,29.65,West,263,25.5,25.5,11,0.00,,---,0.00,VWS V14.01,2013-05-30 22:21:00,
2013-05-30 16:27:00,74.7,16.7,29.62,West,277,28.4,28.4,11,0.00,,---,0.00,VWS V14.01,2013-05-30 22:27:00,
2013-05-30 16:32:00,74.7,16.7,29.62,WSW,253,17.9,28.0,11,0.00,,---,0.00,VWS V14.01,2013-05-30 22:32:00,
2013-05-30 16:37:00,74.7,16.7,29.62,West,273,32.4,32.4,11,0.00,,---,0.00,VWS V14.01,2013-05-30 22:37:00,
2013-05-30 16:42:00,74.5,16.6,29.62,WSW,255,17.9,22.8,11,0.00,,---,0.00,VWS V14.01,2013-05-30 22:42:00,
2013-05-30 16:48:00,74.7,16.7,29.62,West,259,23.7,30.6,11,0.00,,---,0.00,VWS V14.01,2013-05-30 22:48:00,
2013-05-30 16:53:00,74.7,16.7,29.65,SW,230,15.9,15.9,11,0.00,,---,0.00,VWS V14.01,2013-05-30 22:53:00,
2013-05-30 16:58:00,75.0,17.0,29.65,West,268,26.2,29.8,11,0.00,,---,0.00,VWS V14.01,2013-05-30 22:58:00,
2013-05-30 17:03:00,74.7,16.7,29.65,West,277,24.2,26.6,11,0.00,,---,0.00,VWS V14.01,2013-05-30 23:03:00,
2013-05-30 17:09:00,74.3,16.4,29.62,West,268,29.8,29.8,11,0.00,,---,0.00,VWS V14.01,2013-05-30 23:09:00,
2013-05-30 17:14:00,74.3,16.4,29.62,West,274,15.0,19.7,11,0.00,,---,0.00,VWS V14.01,2013-05-30 23:14:00,
2013-05-30 17:20:00,74.7,16.7,29.62,West,272,27.1,27.1,11,0.00,,---,0.00,VWS V14.01,2013-05-30 23:20:00,
2013-05-30 17:26:00,74.8,16.9,29.62,WSW,245,21.9,28.4,11,0.00,,---,0.00,VWS V14.01,2013-05-30 23:26:00,
2013-05-30 17:31:00,74.8,16.9,29.62,WSW,250,22.4,22.4,11,0.00,,---,0.00,VWS V14.01,2013-05-30 23:31:00,
2013-05-30 17:36:00,75.2,14.9,29.65,WSW,250,13.6,19.2,10,0.00,,---,0.00,VWS V14.01,2013-05-30 23:36:00,
2013-05-30 17:41:00,75.6,15.2,29.65,WSW,248,17.9,22.4,10,0.00,,---,0.00,VWS V14.01,2013-05-30 23:41:00,
2013-05-30 17:47:00,75.6,15.2,29.65,WSW,242,15.0,22.4,10,0.00,,---,0.00,VWS V14.01,2013-05-30 23:47:00,
2013-05-30 17:52:00,75.7,15.4,29.65,WSW,248,20.1,22.4,10,0.00,,---,0.00,VWS V14.01,2013-05-30 23:52:00,
2013-05-30 17:58:00,75.7,15.4,29.65,SW,219,13.6,15.0,10,0.00,,---,0.00,VWS V14.01,2013-05-30 23:58:00,
2013-05-30 18:03:00,75.7,15.4,29.65,WSW,257,18.8,19.7,10,0.00,,---,0.00,VWS V14.01,2013-05-31 00:03:00,
2013-05-30 18:09:00,75.7,15.4,29.65,WSW,247,15.0,15.4,10,0.00,,---,0.00,VWS V14.01,2013-05-31 00:09:00,
2013-05-30 18:14:00,75.0,17.0,29.65,SW,231,17.4,18.3,11,0.00,,---,0.00,VWS V14.01,2013-05-31 00:14:00,
2013-05-30 18:20:00,75.2,14.9,29.65,West,281,22.8,22.8,10,0.00,,---,0.00,VWS V14.01,2013-05-31 00:20:00,
2013-05-30 18:27:00,74.7,20.6,29.65,NW,315,26.2,26.2,13,0.00,,---,0.00,VWS V14.01,2013-05-31 00:27:00,
2013-05-30 18:33:00,73.0,21.1,29.65,NW,307,17.0,19.7,14,0.00,,---,0.00,VWS V14.01,2013-05-31 00:33:00,
2013-05-30 18:38:00,72.3,23.6,29.67,NW,313,17.0,17.0,16,0.00,,---,0.00,VWS V14.01,2013-05-31 00:38:00,
2013-05-30 18:44:00,71.8,27.3,29.67,NW,319,12.8,12.8,19,0.00,,---,0.00,VWS V14.01,2013-05-31 00:44:00,
2013-05-30 18:49:00,71.8,29.8,29.67,NW,317,13.2,13.2,21,0.00,,---,0.00,VWS V14.01,2013-05-31 00:49:00,
2013-05-30 18:55:00,72.0,31.1,29.67,NW,311,11.0,11.9,22,0.00,,---,0.00,VWS V14.01,2013-05-31 00:55:00,
2013-05-30 19:00:00,72.1,31.2,29.67,WNW,292,10.1,11.0,22,0.00,,---,0.00,VWS V14.01,2013-05-31 01:00:00,
2013-05-30 19:05:00,72.1,31.2,29.67,NW,307,11.0,11.4,22,0.00,,---,0.00,VWS V14.01,2013-05-31 01:05:00,
2013-05-30 19:10:00,72.3,31.4,29.67,WNW,300,7.6,8.7,22,0.00,,---,0.00,VWS V14.01,2013-05-31 01:10:00,
2013-05-30 19:16:00,72.0,31.1,29.67,WNW,300,8.7,9.6,22,0.00,,---,0.00,VWS V14.01,2013-05-31 01:16:00,
2013-05-30 19:21:00,71.4,30.6,29.70,WNW,294,8.1,8.7,22,0.00,,---,0.00,VWS V14.01,2013-05-31 01:21:00,
2013-05-30 19:27:00,71.1,30.3,29.70,WNW,299,5.8,6.3,22,0.00,,---,0.00,VWS V14.01,2013-05-31 01:27:00,
2013-05-30 19:32:00,70.5,29.9,29.70,WNW,299,5.8,5.8,22,0.00,,---,0.00,VWS V14.01,2013-05-31 01:32:00,
2013-05-30 19:37:00,69.3,28.8,29.70,WNW,298,5.8,5.8,22,0.00,,---,0.00,VWS V14.01,2013-05-31 01:37:00,
2013-05-30 19:42:00,68.2,27.9,29.70,WNW,291,4.0,4.0,22,0.00,,---,0.00,VWS V14.01,2013-05-31 01:42:00,
2013-05-30 19:47:00,67.6,28.5,29.70,WNW,289,3.6,3.6,23,0.00,,---,0.00,VWS V14.01,2013-05-31 01:47:00,
2013-05-30 19:52:00,67.1,28.1,29.70,WNW,288,3.1,4.9,23,0.00,,---,0.00,VWS V14.01,2013-05-31 01:52:00,
2013-05-30 19:58:00,66.0,28.2,29.70,WNW,286,0.0,0.0,24,0.00,,---,0.00,VWS V14.01,2013-05-31 01:58:00,
2013-05-30 20:04:00,64.9,29.3,29.70,West,281,5.4,5.8,26,0.00,,---,0.00,VWS V14.01,2013-05-31 02:04:00,
2013-05-30 20:09:00,64.2,30.5,29.73,WNW,294,8.1,8.1,28,0.00,,---,0.00,VWS V14.01,2013-05-31 02:09:00,
2013-05-30 20:15:00,63.5,30.7,29.73,WNW,299,5.8,6.3,29,0.00,,---,0.00,VWS V14.01,2013-05-31 02:15:00,
2013-05-30 20:20:00,63.1,30.4,29.73,WNW,301,4.0,4.0,29,0.00,,---,0.00,VWS V14.01,2013-05-31 02:20:00,
2013-05-30 20:26:00,63.0,30.2,29.73,WNW,301,0.0,0.0,29,0.00,,---,0.00,VWS V14.01,2013-05-31 02:26:00,
2013-05-30 20:31:00,62.6,30.8,29.73,WNW,301,0.0,0.0,30,0.00,,---,0.00,VWS V14.01,2013-05-31 02:31:00,
2013-05-30 20:36:00,62.2,31.2,29.73,WNW,292,0.0,0.0,31,0.00,,---,0.00,VWS V14.01,2013-05-31 02:36:00,
2013-05-30 20:41:00,61.9,30.9,29.73,WNW,290,0.0,0.0,31,0.00,,---,0.00,VWS V14.01,2013-05-31 02:41:00,
2013-05-30 20:47:00,61.3,31.2,29.73,WNW,291,5.4,5.4,32,0.00,,---,0.00,VWS V14.01,2013-05-31 02:47:00,
2013-05-30 20:53:00,60.8,32.3,29.73,WNW,299,5.8,6.3,34,0.00,,---,0.00,VWS V14.01,2013-05-31 02:53:00,
2013-05-30 20:58:00,60.4,32.0,29.73,WNW,300,5.8,6.3,34,0.00,,---,0.00,VWS V14.01,2013-05-31 02:58:00,
2013-05-30 21:04:00,59.9,32.2,29.73,WNW,301,8.1,8.1,35,0.00,,---,0.00,VWS V14.01,2013-05-31 03:04:00,
2013-05-30 21:09:00,59.7,32.0,29.73,WNW,297,8.7,8.7,35,0.00,,---,0.00,VWS V14.01,2013-05-31 03:09:00,
2013-05-30 21:14:00,59.7,32.0,29.73,WNW,291,7.6,8.1,35,0.00,,---,0.00,VWS V14.01,2013-05-31 03:14:00,
2013-05-30 21:20:00,59.7,32.0,29.73,WNW,294,8.1,8.1,35,0.00,,---,0.00,VWS V14.01,2013-05-31 03:20:00,
2013-05-30 21:25:00,59.2,31.6,29.73,WNW,290,8.7,10.1,35,0.00,,---,0.00,VWS V14.01,2013-05-31 03:25:00,
2013-05-30 21:31:00,58.6,31.8,29.73,WNW,292,12.8,13.2,36,0.00,,---,0.00,VWS V14.01,2013-05-31 03:31:00,
2013-05-30 21:37:00,59.0,31.4,29.76,WNW,295,8.7,11.0,35,0.00,,---,0.00,VWS V14.01,2013-05-31 03:37:00,
2013-05-30 21:42:00,59.4,31.7,29.76,WNW,289,10.5,12.8,35,0.00,,---,0.00,VWS V14.01,2013-05-31 03:42:00,
2013-05-30 21:47:00,59.4,31.7,29.76,WNW,293,17.9,17.9,35,0.00,,---,0.00,VWS V14.01,2013-05-31 03:47:00,
2013-05-30 21:53:00,59.5,31.9,29.76,NW,306,13.2,15.4,35,0.00,,---,0.00,VWS V14.01,2013-05-31 03:53:00,
2013-05-30 21:58:00,59.4,31.7,29.76,WNW,302,8.7,10.5,35,0.00,,---,0.00,VWS V14.01,2013-05-31 03:58:00,
2013-05-30 22:01:00,59.0,31.4,29.76,WNW,303,6.3,7.6,35,0.00,,---,0.00,VWS V14.01,2013-05-31 04:01:00,
2013-05-30 22:02:00,59.0,31.4,29.76,WNW,295,6.7,7.6,35,0.00,,---,0.00,VWS V14.01,2013-05-31 04:02:00,
2013-05-30 22:03:00,59.0,31.4,29.76,WNW,295,6.7,6.7,35,0.00,,---,0.00,VWS V14.01,2013-05-31 04:03:00,
2013-05-30 22:06:00,58.6,31.8,29.76,West,281,7.2,7.2,36,0.00,,---,0.00,VWS V14.01,2013-05-31 04:06:00,
2013-05-30 22:10:00,57.9,31.8,29.76,West,273,6.3,6.3,37,0.00,,---,0.00,VWS V14.01,2013-05-31 04:10:00,
2013-05-30 22:15:00,57.4,31.3,29.76,West,267,6.3,6.3,37,0.00,,---,0.00,VWS V14.01,2013-05-31 04:15:00,
2013-05-30 22:21:00,56.5,31.8,29.79,WSW,252,6.3,6.3,39,0.00,,---,0.00,VWS V14.01,2013-05-31 04:21:00,
2013-05-30 22:29:00,55.9,32.6,29.79,West,271,7.6,7.6,41,0.00,,---,0.00,VWS V14.01,2013-05-31 04:29:00,
2013-05-30 22:35:00,55.2,32.5,29.79,West,266,7.6,7.6,42,0.00,,---,0.00,VWS V14.01,2013-05-31 04:35:00,
2013-05-30 22:40:00,54.5,33.0,29.79,West,276,7.6,7.6,44,0.00,,---,0.00,VWS V14.01,2013-05-31 04:40:00,
2013-05-30 22:45:00,54.1,33.8,29.79,WSW,252,6.7,6.7,46,0.00,,---,0.00,VWS V14.01,2013-05-31 04:45:00,
2013-05-30 22:51:00,53.8,34.0,29.79,West,266,6.7,7.6,47,0.00,,---,0.00,VWS V14.01,2013-05-31 04:51:00,
2013-05-30 22:56:00,53.6,33.9,29.79,West,281,8.7,8.7,47,0.00,,---,0.00,VWS V14.01,2013-05-31 04:56:00,
2013-05-30 23:01:00,52.9,33.2,29.79,West,279,9.2,9.2,47,0.00,,---,0.00,VWS V14.01,2013-05-31 05:01:00,
2013-05-30 23:06:00,52.7,34.1,29.79,WNW,288,8.1,8.1,49,0.00,,---,0.00,VWS V14.01,2013-05-31 05:06:00,
2013-05-30 23:13:00,52.9,34.8,29.79,West,275,8.3,8.3,50,0.00,,---,0.00,VWS V14.01,2013-05-31 05:13:00,
2013-05-30 23:18:00,52.9,34.8,29.79,WNW,292,11.0,11.0,50,0.00,,---,0.00,VWS V14.01,2013-05-31 05:18:00,
2013-05-30 23:25:00,52.9,35.3,29.79,WNW,293,10.5,11.0,51,0.00,,---,0.00,VWS V14.01,2013-05-31 05:25:00,
2013-05-30 23:31:00,53.6,36.9,29.79,NW,311,12.8,12.8,53,0.00,,---,0.00,VWS V14.01,2013-05-31 05:31:00,
2013-05-30 23:37:00,54.3,36.6,29.79,WNW,299,13.2,13.6,51,0.00,,---,0.00,VWS V14.01,2013-05-31 05:37:00,
2013-05-30 23:42:00,54.5,36.3,29.79,WNW,302,15.0,15.0,50,0.00,,---,0.00,VWS V14.01,2013-05-31 05:42:00,
2013-05-30 23:53:00,54.3,35.6,29.79,WNW,301,10.5,13.2,49,0.00,,---,0.00,VWS V14.01,2013-05-31 05:53:00,
2013-05-30 23:59:00,54.1,35.4,29.79,NW,308,8.7,8.7,49,0.00,,---,0.00,VWS V14.01,2013-05-31 05:59:00,